Time;durP1;ratioP1;P1;durP2;ratioP2;P2;SDS_P1;SDS_P2;PMS_P1;PMS_P2;Temp;Humidity;BMP_temperature;BMP_pressure;BME280_temperature;BME280_humidity;BME280_pressure;Samples;Min_cycle;Max_cycle;Signal;HPM_P1;HPM_P2
2023/06/03 00:01:41;;;;;;;7.60;3.70;;;;;;;13.97;67.34;98145.31;5052000;28;20612;-81
2023/06/03 00:04:11;;;;;;;8.53;3.97;;;;;;;13.87;67.51;98144.38;5051872;28;20208;-80
2023/06/03 00:06:37;;;;;;;7.30;3.30;;;;;;;13.81;67.99;98144.06;5051915;28;20235;-81
2023/06/03 00:09:04;;;;;;;7.10;3.60;;;;;;;13.88;67.56;98143.41;5051485;28;20605;-80
2023/06/03 00:11:30;;;;;;;11.10;4.00;;;;;;;13.76;68.50;98146.25;5050595;28;20208;-80
2023/06/03 00:13:57;;;;;;;10.00;3.47;;;;;;;13.60;69.38;98145.78;5051051;28;20212;-80
2023/06/03 00:16:23;;;;;;;6.70;3.63;;;;;;;13.67;69.21;98141.66;5051226;28;20834;-81
2023/06/03 00:18:51;;;;;;;8.13;3.87;;;;;;;13.65;69.38;98138.28;5051059;28;20273;-81
2023/06/03 00:21:18;;;;;;;7.30;3.60;;;;;;;13.60;69.70;98135.16;5050421;28;20215;-81
2023/06/03 00:23:45;;;;;;;6.57;3.80;;;;;;;13.65;69.58;98133.84;5050973;28;20241;-80
2023/06/03 00:26:12;;;;;;;9.27;3.57;;;;;;;13.65;69.30;98130.34;5050846;28;20629;-81
2023/06/03 00:28:38;;;;;;;8.27;3.30;;;;;;;13.65;69.63;98140.94;5051059;28;20235;-81
2023/06/03 00:31:05;;;;;;;9.40;3.77;;;;;;;13.61;69.93;98142.16;5050142;28;20208;-81
2023/06/03 00:33:32;;;;;;;8.53;3.50;;;;;;;13.54;70.05;98140.97;5050993;28;20590;-81
2023/06/03 00:36:00;;;;;;;8.53;3.80;;;;;;;13.49;70.08;98145.81;5050968;28;20618;-81
2023/06/03 00:38:26;;;;;;;5.47;3.33;;;;;;;13.37;71.31;98138.81;5050498;28;20240;-81
2023/06/03 00:40:52;;;;;;;9.97;3.63;;;;;;;13.23;71.72;98149.72;5050029;28;20207;-81
2023/06/03 00:43:19;;;;;;;6.10;3.50;;;;;;;13.24;71.93;98148.72;5050738;28;20608;-81
2023/06/03 00:45:45;;;;;;;7.30;3.77;;;;;;;13.25;71.85;98145.97;5050798;28;20235;-81
2023/06/03 00:48:12;;;;;;;9.80;3.93;;;;;;;13.27;71.41;98143.19;5050762;28;20320;-81
2023/06/03 00:50:39;;;;;;;4.53;3.40;;;;;;;13.23;71.52;98142.59;5050062;28;20672;-81
2023/06/03 00:53:09;;;;;;;5.70;3.37;;;;;;;13.24;72.05;98138.13;5050864;28;20207;-80
2023/06/03 00:55:35;;;;;;;8.07;3.83;;;;;;;13.17;72.20;98136.94;5051207;28;20203;-81
2023/06/03 00:58:02;;;;;;;8.77;4.00;;;;;;;13.19;71.64;98129.69;5050788;28;20238;-81
2023/06/03 01:00:29;;;;;;;8.13;3.67;;;;;;;13.18;72.20;98133.28;5049728;28;20217;-81
2023/06/03 01:02:55;;;;;;;8.37;3.60;;;;;;;13.12;72.55;98131.13;5050874;28;20203;-81
2023/06/03 01:05:23;;;;;;;8.47;3.70;;;;;;;13.16;72.05;98130.78;5050728;28;20234;-81
2023/06/03 01:08:00;;;;;;;6.83;3.43;;;;;;;13.20;72.23;98131.38;5050633;28;20607;-81
2023/06/03 01:10:34;;;;;;;7.00;3.67;;;;;;;13.13;72.40;98130.16;5050788;28;20191;-81
2023/06/03 01:13:05;;;;;;;9.83;3.90;;;;;;;13.02;72.69;98127.53;5054920;28;20226;-81
2023/06/03 01:15:35;;;;;;;8.60;4.00;;;;;;;13.00;73.08;98124.16;5054705;28;20219;-81
2023/06/03 01:18:04;;;;;;;7.53;4.50;;;;;;;12.98;73.26;98126.94;5054364;28;20232;-81
2023/06/03 01:20:32;;;;;;;10.93;3.70;;;;;;;12.95;73.27;98129.81;5053897;28;20208;-81
2023/06/03 01:23:19;;;;;;;5.17;3.13;;;;;;;12.89;74.27;98132.09;5054347;28;20711;-81
2023/06/03 01:25:46;;;;;;;7.73;3.90;;;;;;;12.92;74.13;98129.19;5054958;28;20237;-81
2023/06/03 01:28:13;;;;;;;7.40;3.50;;;;;;;12.88;74.16;98128.59;5054584;28;20737;-81
2023/06/03 01:30:39;;;;;;;7.37;3.50;;;;;;;12.93;74.00;98129.06;5053835;28;20219;-81
2023/06/03 01:33:06;;;;;;;7.33;3.60;;;;;;;12.86;74.08;98127.00;5054500;28;20219;-81
2023/06/03 01:35:34;;;;;;;5.43;3.60;;;;;;;12.80;74.51;98135.44;5054911;28;20207;-81
2023/06/03 01:38:01;;;;;;;3.73;3.03;;;;;;;12.72;75.43;98129.91;5054641;28;20590;-80
2023/06/03 01:40:31;;;;;;;7.67;3.97;;;;;;;12.70;75.46;98131.81;5053526;28;20207;-81
2023/06/03 01:42:57;;;;;;;7.63;3.73;;;;;;;12.65;75.73;98128.69;5054409;28;20212;-81
2023/06/03 01:45:24;;;;;;;8.00;3.40;;;;;;;12.73;75.39;98128.94;5054020;28;20208;-81
2023/06/03 01:47:51;;;;;;;7.93;3.40;;;;;;;12.70;75.72;98131.81;5054643;28;20242;-81
2023/06/03 01:50:18;;;;;;;6.77;3.40;;;;;;;12.66;75.96;98130.38;5053623;28;20212;-81
2023/06/03 01:52:45;;;;;;;4.97;3.23;;;;;;;12.54;76.53;98136.63;5053986;28;20216;-81
2023/06/03 01:55:12;;;;;;;5.07;3.50;;;;;;;12.53;76.97;98140.25;5053995;28;20208;-80
2023/06/03 01:57:40;;;;;;;7.50;3.57;;;;;;;12.48;77.11;98131.78;5053538;28;20600;-81
2023/06/03 02:00:09;;;;;;;5.77;3.37;;;;;;;12.45;78.23;98132.88;5052984;28;20227;-81
2023/06/03 02:02:35;;;;;;;6.20;3.33;;;;;;;12.39;78.74;98140.44;5053505;28;20675;-81
2023/06/03 02:05:02;;;;;;;4.77;3.40;;;;;;;12.37;78.60;98147.66;5053684;28;20226;-81
2023/06/03 02:07:30;;;;;;;5.57;3.60;;;;;;;12.39;78.17;98137.78;5053687;28;20267;-81
2023/06/03 02:09:57;;;;;;;7.80;3.53;;;;;;;12.34;78.80;98135.50;5053081;28;20242;-81
2023/06/03 02:12:23;;;;;;;8.07;4.13;;;;;;;12.23;79.56;98137.28;5053603;28;20222;-81
2023/06/03 02:14:53;;;;;;;4.70;3.33;;;;;;;12.19;79.65;98130.50;5053597;28;20219;-81
2023/06/03 02:17:20;;;;;;;10.00;3.80;;;;;;;12.24;80.27;98138.97;5053658;28;20211;-81
2023/06/03 02:19:47;;;;;;;7.70;4.03;;;;;;;12.23;80.14;98131.97;5052958;28;20216;-81
2023/06/03 02:22:14;;;;;;;7.10;3.13;;;;;;;12.17;80.57;98132.44;5053645;28;20303;-81
2023/06/03 02:24:40;;;;;;;7.00;3.80;;;;;;;12.12;80.77;98124.00;5053434;28;20209;-80
2023/06/03 02:27:08;;;;;;;6.83;3.47;;;;;;;12.07;81.58;98131.44;5053280;28;20314;-81
2023/06/03 02:29:36;;;;;;;8.70;3.93;;;;;;;11.99;82.27;98136.47;5052814;28;20208;-80
2023/06/03 02:32:04;;;;;;;4.67;3.30;;;;;;;11.91;83.02;98130.88;5053456;28;20219;-81
2023/06/03 02:34:30;;;;;;;7.77;4.07;;;;;;;11.98;83.13;98129.50;5052992;28;20218;-81
2023/06/03 02:36:57;;;;;;;8.90;3.70;;;;;;;11.98;81.99;98132.97;5053490;28;20203;-81
2023/06/03 02:39:23;;;;;;;8.17;3.77;;;;;;;11.93;82.56;98128.97;5052308;28;20239;-81
2023/06/03 02:41:50;;;;;;;9.73;4.47;;;;;;;11.97;82.44;98136.56;5053412;28;20227;-80
2023/06/03 02:44:17;;;;;;;8.93;3.40;;;;;;;12.00;82.14;98123.13;5053435;28;20314;-81
2023/06/03 02:46:44;;;;;;;7.70;3.70;;;;;;;12.05;81.94;98133.38;5053359;28;20580;-80
2023/06/03 02:49:14;;;;;;;9.50;3.83;;;;;;;12.13;81.34;98130.97;5052437;28;20228;-81
2023/06/03 02:51:40;;;;;;;8.23;3.70;;;;;;;12.09;81.54;98135.66;5053383;28;20215;-81
2023/06/03 02:54:07;;;;;;;8.30;3.97;;;;;;;12.11;81.44;98132.91;5053419;28;20633;-80
2023/06/03 02:56:34;;;;;;;8.13;3.87;;;;;;;12.11;81.30;98132.91;5053404;28;20621;-81
2023/06/03 02:59:01;;;;;;;7.90;4.30;;;;;;;12.06;81.57;98132.41;5052900;28;20262;-81
2023/06/03 03:01:28;;;;;;;6.37;3.43;;;;;;;12.01;82.17;98138.06;5052621;28;20207;-81
2023/06/03 03:03:55;;;;;;;6.27;3.70;;;;;;;12.03;82.46;98137.91;5053481;28;20209;-81
2023/06/03 03:06:24;;;;;;;5.07;3.77;;;;;;;11.98;82.06;98140.09;5053188;28;20235;-81
2023/06/03 03:08:51;;;;;;;7.77;3.70;;;;;;;11.99;82.52;98136.47;5052598;28;20239;-81
2023/06/03 03:11:18;;;;;;;8.57;4.23;;;;;;;11.92;82.06;98137.91;5052517;28;20211;-81
2023/06/03 03:13:45;;;;;;;8.40;4.47;;;;;;;11.92;81.93;98140.53;5052885;28;20697;-81
2023/06/03 03:16:12;;;;;;;6.27;3.60;;;;;;;11.86;82.58;98141.00;5053106;28;20218;-82
2023/06/03 03:18:39;;;;;;;6.33;3.50;;;;;;;11.80;83.18;98138.81;5052632;28;20234;-81
2023/06/03 03:21:06;;;;;;;9.33;4.20;;;;;;;11.86;82.50;98141.00;5052049;28;20211;-81
2023/06/03 03:23:34;;;;;;;8.87;3.73;;;;;;;11.87;82.57;98140.03;5052812;28;20637;-81
2023/06/03 03:26:01;;;;;;;10.03;3.90;;;;;;;11.89;82.83;98138.09;5052473;28;20695;-82
2023/06/03 03:28:28;;;;;;;7.70;4.07;;;;;;;11.87;82.60;98145.31;5052674;28;20235;-82
2023/06/03 03:30:56;;;;;;;6.17;4.23;;;;;;;11.84;82.88;98140.25;5051483;28;20227;-81
2023/06/03 03:33:22;;;;;;;6.23;3.90;;;;;;;11.83;82.82;98143.84;5051825;28;20627;-81
2023/06/03 03:35:50;;;;;;;7.20;3.93;;;;;;;11.88;82.97;98152.31;5052034;28;20595;-81
2023/06/03 03:38:17;;;;;;;8.67;4.00;;;;;;;11.81;83.14;98146.59;5076684;22;20234;-78
2023/06/03 03:40:45;;;;;;;7.50;3.93;;;;;;;11.77;83.59;98146.97;5091243;28;20214;-75
2023/06/03 03:43:15;;;;;;;8.23;4.47;;;;;;;11.76;83.92;98153.22;5092041;28;20217;-75
2023/06/03 03:45:42;;;;;;;8.80;3.67;;;;;;;11.75;84.03;98147.06;5092086;28;20280;-75
2023/06/03 03:48:16;;;;;;;6.70;3.77;;;;;;;11.66;84.43;98153.03;5091728;28;20580;-76
2023/06/03 03:50:44;;;;;;;6.87;4.27;;;;;;;11.62;84.98;98153.38;5091487;28;20209;-75
2023/06/03 03:53:19;;;;;;;9.37;4.07;;;;;;;11.76;84.53;98150.56;5092126;28;20221;-76
2023/06/03 03:55:49;;;;;;;8.57;4.10;;;;;;;11.78;83.99;98151.28;5091917;28;20205;-76
2023/06/03 03:58:27;;;;;;;8.60;3.93;;;;;;;11.73;84.66;98148.97;5091723;28;20320;-76
2023/06/03 04:00:54;;;;;;;7.37;3.60;;;;;;;11.80;84.14;98152.03;5090943;28;20665;-76
2023/06/03 04:03:23;;;;;;;10.33;4.27;;;;;;;11.82;83.78;98143.03;5091971;28;20209;-76
2023/06/03 04:05:50;;;;;;;6.50;4.20;;;;;;;11.86;83.28;98146.28;5091749;28;20210;-76
2023/06/03 04:08:38;;;;;;;8.50;4.37;;;;;;;11.88;83.16;98152.31;5091569;28;20243;-77
2023/06/03 04:11:07;;;;;;;5.63;3.60;;;;;;;11.92;83.62;98151.97;5090770;28;20704;-76
2023/06/03 04:13:36;;;;;;;5.70;3.97;;;;;;;11.97;83.80;98159.56;5091593;28;20676;-76
2023/06/03 04:16:04;;;;;;;7.40;4.17;;;;;;;11.98;84.12;98161.28;5091500;28;20598;-78
2023/06/03 04:18:33;;;;;;;8.40;3.93;;;;;;;12.06;83.85;98161.53;5091571;28;20592;-76
2023/06/03 04:21:00;;;;;;;6.73;4.33;;;;;;;12.17;82.69;98157.13;5090746;28;20217;-76
2023/06/03 04:23:28;;;;;;;8.27;3.80;;;;;;;12.22;82.97;98162.09;5091423;28;20587;-76
2023/06/03 04:25:55;;;;;;;7.13;3.80;;;;;;;12.20;83.28;98159.56;5091277;28;20214;-76
2023/06/03 04:28:22;;;;;;;7.63;4.20;;;;;;;12.29;82.95;98164.16;5091374;28;20271;-76
2023/06/03 04:30:49;;;;;;;6.40;4.07;;;;;;;12.26;83.57;98163.53;5090442;28;20218;-76
2023/06/03 04:33:15;;;;;;;5.97;4.20;;;;;;;12.17;84.69;98170.38;5091160;28;20214;-76
2023/06/03 04:35:42;;;;;;;8.47;3.77;;;;;;;12.25;85.16;98177.75;5091168;28;20214;-76
2023/06/03 04:38:08;;;;;;;9.10;4.53;;;;;;;12.21;85.55;98181.56;5090955;28;20761;-76
2023/06/03 04:40:37;;;;;;;7.17;4.33;;;;;;;12.22;85.62;98178.00;5090378;28;20210;-76
2023/06/03 04:43:03;;;;;;;6.63;4.10;;;;;;;12.30;85.70;98175.59;5091411;28;20206;-76
2023/06/03 04:45:32;;;;;;;5.83;3.97;;;;;;;12.30;86.31;98180.91;5092060;28;20202;-76
2023/06/03 04:48:01;;;;;;;7.73;4.00;;;;;;;12.32;87.26;98179.81;5095376;28;20233;-76
2023/06/03 04:50:28;;;;;;;5.23;3.73;;;;;;;12.51;86.41;98168.66;5094692;28;20309;-76
2023/06/03 04:52:56;;;;;;;8.13;4.43;;;;;;;12.66;86.07;98173.63;5095560;28;20386;-76
2023/06/03 04:55:23;;;;;;;10.00;4.83;;;;;;;12.86;84.76;98165.00;5095137;28;20221;-76
2023/06/03 04:57:50;;;;;;;6.33;4.43;;;;;;;12.98;83.69;98168.53;5095323;28;20237;-76
2023/06/03 05:00:19;;;;;;;8.93;4.43;;;;;;;13.10;83.96;98167.56;5094562;28;20207;-76
2023/06/03 05:02:54;;;;;;;8.13;4.90;;;;;;;13.23;83.21;98158.53;5095204;28;20214;-76
2023/06/03 05:05:22;;;;;;;8.40;4.50;;;;;;;13.65;80.36;98155.09;5095030;28;20258;-76
2023/06/03 05:07:48;;;;;;;5.53;4.23;;;;;;;14.11;76.87;98133.56;5095150;28;20254;-76
2023/06/03 05:10:15;;;;;;;6.83;4.47;;;;;;;14.68;73.49;98131.31;5094260;28;20216;-76
2023/06/03 05:12:42;;;;;;;10.40;4.13;;;;;;;15.14;70.60;98118.38;5094921;28;20685;-76
2023/06/03 05:15:09;;;;;;;8.27;4.03;;;;;;;15.61;68.55;98113.22;5094841;28;20299;-76
2023/06/03 05:17:38;;;;;;;9.00;4.20;;;;;;;15.98;66.27;98111.59;5094695;28;20202;-76
2023/06/03 05:20:07;;;;;;;8.00;4.17;;;;;;;16.28;64.54;98098.94;5094029;28;20207;-76
2023/06/03 05:22:34;;;;;;;10.33;4.30;;;;;;;16.49;63.72;98091.66;5094663;28;20210;-76
2023/06/03 05:25:00;;;;;;;6.23;3.60;;;;;;;16.83;62.72;98095.47;5094633;28;20207;-76
2023/06/03 05:27:26;;;;;;;7.63;4.60;;;;;;;17.09;61.56;98090.31;5094475;28;20231;-76
2023/06/03 05:29:53;;;;;;;7.47;4.00;;;;;;;17.44;61.18;98096.63;5093859;28;20341;-76
2023/06/03 05:32:19;;;;;;;5.27;3.60;;;;;;;17.85;59.49;98074.69;5094481;28;20206;-76
2023/06/03 05:34:46;;;;;;;6.03;4.00;;;;;;;18.16;58.68;98075.16;5094505;28;20210;-77
2023/06/03 05:37:14;;;;;;;10.43;4.20;;;;;;;18.37;56.99;98065.84;5094700;28;20583;-78
2023/06/03 05:39:40;;;;;;;6.27;3.77;;;;;;;18.54;56.20;98058.75;5093551;28;20237;-76
2023/06/03 05:42:07;;;;;;;7.93;3.97;;;;;;;18.64;56.20;98065.69;5094449;28;20203;-75
2023/06/03 05:44:33;;;;;;;12.43;4.30;;;;;;;18.91;56.11;98070.84;5094345;28;20211;-76
2023/06/03 05:47:00;;;;;;;9.23;4.10;;;;;;;19.22;54.95;98064.03;5094103;28;20210;-76
2023/06/03 05:49:26;;;;;;;7.27;4.07;;;;;;;19.36;54.03;98055.38;5093702;28;20239;-76
2023/06/03 05:51:53;;;;;;;6.77;3.97;;;;;;;19.53;53.21;98061.63;5094342;28;20206;-76
2023/06/03 05:54:21;;;;;;;5.73;3.57;;;;;;;19.54;52.84;98048.06;5094187;28;20207;-76
2023/06/03 05:56:47;;;;;;;6.20;3.97;;;;;;;19.38;52.20;98048.00;5093663;28;20575;-76
2023/06/03 05:59:14;;;;;;;4.87;3.20;;;;;;;19.42;52.46;98048.50;5093318;28;20231;-76
2023/06/03 06:01:40;;;;;;;6.93;3.87;;;;;;;19.58;52.28;98044.03;5093860;28;20211;-75
2023/06/03 06:04:07;;;;;;;6.50;4.10;;;;;;;19.78;53.00;98056.16;5093931;28;20211;-76
2023/06/03 06:06:33;;;;;;;6.53;4.17;;;;;;;19.97;52.69;98055.84;5094027;28;20222;-75
2023/06/03 06:09:00;;;;;;;7.47;4.07;;;;;;;20.13;51.74;98049.69;5093820;28;20241;-76
2023/06/03 06:11:28;;;;;;;9.07;4.00;;;;;;;20.25;50.59;98048.34;5093168;28;20206;-76
2023/06/03 06:13:54;;;;;;;6.53;3.73;;;;;;;20.10;50.74;98044.63;5093727;28;20705;-76
2023/06/03 06:16:21;;;;;;;6.97;3.77;;;;;;;20.24;51.54;98055.53;5093630;28;20214;-76
2023/06/03 06:18:49;;;;;;;6.37;4.07;;;;;;;20.56;50.88;98055.53;5093694;28;20317;-76
2023/06/03 06:21:16;;;;;;;5.87;3.87;;;;;;;20.58;49.92;98047.28;5092983;28;20230;-76
2023/06/03 06:23:43;;;;;;;7.67;3.93;;;;;;;20.77;50.55;98054.97;5093519;28;20207;-76
2023/06/03 06:26:10;;;;;;;7.13;3.70;;;;;;;20.89;50.17;98051.81;5093512;28;20213;-76
2023/06/03 06:28:38;;;;;;;8.53;3.90;;;;;;;20.87;49.28;98040.38;5093212;28;20231;-76
2023/06/03 06:31:06;;;;;;;5.87;4.30;;;;;;;20.81;49.77;98062.56;5092651;28;20202;-75
2023/06/03 06:33:34;;;;;;;6.83;4.27;;;;;;;20.72;49.23;98042.06;5093280;28;20242;-76
2023/06/03 06:36:02;;;;;;;8.10;4.47;;;;;;;20.77;49.57;98049.59;5093288;28;20218;-76
2023/06/03 06:38:28;;;;;;;6.00;4.00;;;;;;;20.71;50.72;98067.25;5093051;28;20234;-76
2023/06/03 06:40:55;;;;;;;8.30;4.57;;;;;;;20.91;50.83;98067.75;5092512;28;20206;-77
2023/06/03 06:43:25;;;;;;;7.57;4.30;;;;;;;21.02;49.52;98054.78;5093106;28;20211;-77
2023/06/03 06:45:56;;;;;;;6.97;4.30;;;;;;;21.06;48.23;98034.63;5093232;28;20207;-77
2023/06/03 06:48:22;;;;;;;9.30;4.50;;;;;;;21.01;49.54;98061.19;5093027;28;20295;-75
2023/06/03 06:50:52;;;;;;;6.50;3.93;;;;;;;21.13;49.76;98059.78;5092551;28;20540;-81
2023/06/03 06:53:20;;;;;;;4.90;3.80;;;;;;;21.16;49.42;98067.50;5093015;28;20210;-77
2023/06/03 06:55:49;;;;;;;6.73;3.83;;;;;;;21.31;48.55;98049.66;5092938;28;20538;-77
2023/06/03 06:58:17;;;;;;;8.67;4.10;;;;;;;21.26;49.27;98052.00;5092842;28;20222;-76
2023/06/03 07:00:44;;;;;;;6.07;4.20;;;;;;;21.18;49.16;98051.19;5092047;28;20211;-76
2023/06/03 07:03:14;;;;;;;6.50;4.27;;;;;;;20.92;48.88;98046.06;5092763;28;20211;-76
2023/06/03 07:05:40;;;;;;;7.93;4.20;;;;;;;20.40;50.54;98066.28;5092748;28;20207;-77
2023/06/03 07:08:07;;;;;;;9.30;4.57;;;;;;;19.75;51.37;98061.00;5091481;28;20235;-77
2023/06/03 07:10:35;;;;;;;7.47;4.40;;;;;;;19.16;53.11;98064.66;5089619;28;20221;-77
2023/06/03 07:13:02;;;;;;;7.40;3.83;;;;;;;18.67;54.53;98081.44;5091430;28;20202;-77
2023/06/03 07:15:29;;;;;;;5.80;4.00;;;;;;;18.45;57.75;98108.72;5091659;28;20207;-77
2023/06/03 07:17:57;;;;;;;8.33;4.43;;;;;;;18.48;56.58;98089.66;5091387;28;20223;-78
2023/06/03 07:20:31;;;;;;;8.43;4.20;;;;;;;18.36;55.46;98082.88;5089981;28;20222;-78
2023/06/03 07:22:58;;;;;;;9.73;4.80;;;;;;;18.32;56.50;98094.03;5091688;28;20209;-77
2023/06/03 07:25:36;;;;;;;6.20;3.77;;;;;;;18.26;58.22;98108.84;5091412;28;20583;-77
2023/06/03 07:28:04;;;;;;;5.97;4.33;;;;;;;18.33;57.75;98107.28;5091619;28;20230;-76
2023/06/03 07:30:34;;;;;;;8.13;4.50;;;;;;;18.26;56.82;98095.47;5090682;28;20211;-81
2023/06/03 07:33:02;;;;;;;8.50;4.30;;;;;;;18.28;58.79;98120.22;5090607;28;20214;-81
2023/06/03 07:35:30;;;;;;;8.80;4.90;;;;;;;18.32;58.43;98110.94;5091286;28;20210;-80
2023/06/03 07:37:57;;;;;;;6.57;4.33;;;;;;;18.27;58.04;98102.50;5091407;28;20608;-80
2023/06/03 07:40:38;;;;;;;6.50;4.03;;;;;;;18.30;58.54;98107.53;5089803;28;20214;-80
2023/06/03 07:43:05;;;;;;;7.33;5.17;;;;;;;18.50;57.67;98093.03;5090626;28;20432;-77
2023/06/03 07:45:31;;;;;;;7.30;4.13;;;;;;;18.50;59.51;98114.44;5091942;28;20207;-83
2023/06/03 07:47:58;;;;;;;7.60;4.00;;;;;;;18.58;57.31;98097.56;5091902;28;20242;-77
2023/06/03 07:50:26;;;;;;;6.63;4.17;;;;;;;18.71;56.96;98100.72;5091322;28;20721;-77
2023/06/03 07:53:00;;;;;;;5.97;4.57;;;;;;;18.89;56.76;98098.81;5092014;28;20203;-77
2023/06/03 07:55:31;;;;;;;6.83;4.37;;;;;;;18.96;59.72;98122.09;5091795;28;20296;-77
2023/06/03 07:57:57;;;;;;;9.53;4.40;;;;;;;19.20;59.67;98124.97;5091615;28;20600;-77
2023/06/03 08:00:24;;;;;;;5.63;4.37;;;;;;;19.39;57.70;98116.69;5090986;28;20215;-77
2023/06/03 08:02:51;;;;;;;5.63;4.20;;;;;;;19.49;55.29;98092.41;5091789;28;20323;-78
2023/06/03 08:05:34;;;;;;;7.53;4.20;;;;;;;19.60;56.00;98106.38;5091595;28;20677;-78
2023/06/03 08:08:05;;;;;;;7.73;4.00;;;;;;;19.70;54.80;98098.19;5091733;28;20296;-77
2023/06/03 08:10:34;;;;;;;7.90;4.10;;;;;;;19.82;55.82;98102.25;5090928;28;20213;-78
2023/06/03 08:13:01;;;;;;;6.97;4.77;;;;;;;19.95;55.63;98098.09;5091534;28;20211;-78
2023/06/03 08:15:31;;;;;;;9.17;4.67;;;;;;;20.11;56.66;98105.38;5091310;28;20669;-78
2023/06/03 08:17:58;;;;;;;7.67;4.57;;;;;;;20.22;53.43;98079.03;5091187;28;20249;-77
2023/06/03 08:20:25;;;;;;;5.03;3.93;;;;;;;19.98;52.12;98062.03;5090390;28;20214;-77
2023/06/03 08:22:52;;;;;;;7.07;3.90;;;;;;;20.03;54.46;98103.47;5091351;28;20707;-77
2023/06/03 08:25:20;;;;;;;7.40;4.50;;;;;;;20.13;53.63;98088.09;5091076;28;20210;-77
2023/06/03 08:27:47;;;;;;;6.80;4.87;;;;;;;20.23;54.56;98102.19;5091523;28;20210;-80
2023/06/03 08:30:14;;;;;;;4.97;4.13;;;;;;;20.30;54.33;98094.31;5090802;28;20214;-79
2023/06/03 08:32:41;;;;;;;6.87;4.37;;;;;;;20.38;54.26;98092.47;5091510;28;20772;-85
2023/06/03 08:35:09;;;;;;;6.90;4.37;;;;;;;20.50;54.76;98096.50;5091322;28;20670;-77
2023/06/03 08:37:36;;;;;;;5.37;4.03;;;;;;;20.58;54.48;98104.53;5089733;28;20206;-77
2023/06/03 08:40:07;;;;;;;7.60;4.93;;;;;;;20.76;52.48;98086.38;5087917;28;20603;-77
2023/06/03 08:42:40;;;;;;;5.67;3.90;;;;;;;20.82;52.20;98087.53;5090186;28;20301;-79
2023/06/03 08:45:08;;;;;;;6.67;4.77;;;;;;;20.99;55.19;98119.63;5090241;28;20725;-76
2023/06/03 08:47:41;;;;;;;4.90;4.27;;;;;;;21.18;55.74;98123.78;5088522;28;20213;-78
2023/06/03 08:50:10;;;;;;;8.47;4.60;;;;;;;21.11;53.63;98102.16;5089451;28;20226;-77
2023/06/03 08:52:39;;;;;;;11.27;6.47;;;;;;;21.14;54.15;98115.22;5090444;28;20229;-77
2023/06/03 08:55:07;;;;;;;6.47;4.80;;;;;;;21.17;52.08;98097.91;5088975;28;20226;-78
2023/06/03 08:57:41;;;;;;;6.27;4.73;;;;;;;21.25;55.63;98135.50;5090716;28;20203;-77
2023/06/03 09:00:10;;;;;;;5.07;4.43;;;;;;;21.30;54.75;98117.88;5090088;28;20206;-77
2023/06/03 09:02:37;;;;;;;8.43;4.70;;;;;;;21.41;54.86;98114.81;5090915;28;20210;-77
2023/06/03 09:05:05;;;;;;;6.33;4.57;;;;;;;21.46;51.33;98080.16;5090958;28;20289;-76
2023/06/03 09:07:32;;;;;;;8.63;5.07;;;;;;;21.53;53.19;98099.94;5091136;28;20214;-77
2023/06/03 09:09:59;;;;;;;8.33;4.47;;;;;;;21.51;50.87;98072.41;5089832;28;20250;-77
2023/06/03 09:12:27;;;;;;;5.63;4.67;;;;;;;21.43;53.08;98099.34;5090854;28;20207;-76
2023/06/03 09:14:56;;;;;;;7.50;4.80;;;;;;;21.40;51.44;98080.84;5090924;28;20557;-76
2023/06/03 09:17:25;;;;;;;6.73;4.70;;;;;;;21.43;52.23;98090.41;5090735;28;20727;-76
2023/06/03 09:19:53;;;;;;;6.33;4.90;;;;;;;21.46;51.99;98085.53;5089835;28;20318;-76
2023/06/03 09:22:20;;;;;;;6.13;4.37;;;;;;;21.62;52.58;98101.59;5090662;28;20210;-77
2023/06/03 09:24:48;;;;;;;6.50;4.70;;;;;;;21.66;51.27;98091.31;5090888;28;20676;-76
2023/06/03 09:27:14;;;;;;;6.37;4.23;;;;;;;21.79;54.07;98119.38;5090526;28;20217;-75
2023/06/03 09:29:42;;;;;;;5.70;4.53;;;;;;;21.92;53.84;98108.88;5089796;28;20305;-75
2023/06/03 09:32:10;;;;;;;6.90;5.13;;;;;;;22.14;54.88;98123.38;5091998;28;20210;-77
2023/06/03 09:34:37;;;;;;;6.23;4.67;;;;;;;22.19;51.68;98084.13;5094619;28;20206;-76
2023/06/03 09:37:08;;;;;;;5.83;4.87;;;;;;;22.18;53.74;98113.94;5094459;28;20211;-77
2023/06/03 09:39:35;;;;;;;6.77;5.13;;;;;;;22.25;49.92;98078.00;5096349;22;20609;-85
2023/06/03 09:42:02;;;;;;;5.80;4.40;;;;;;;22.10;50.10;98066.38;5074303;28;20211;-82
2023/06/03 09:44:39;;;;;;;6.30;4.93;;;;;;;21.95;51.78;98081.59;5074277;28;20208;-82
2023/06/03 09:47:06;;;;;;;7.53;4.50;;;;;;;21.97;51.29;98081.41;5073976;28;20606;-82
2023/06/03 09:49:34;;;;;;;7.00;4.83;;;;;;;21.73;50.98;98068.97;5073331;28;20226;-82
2023/06/03 09:52:00;;;;;;;8.27;4.97;;;;;;;21.83;51.84;98088.38;5074075;28;20327;-82
2023/06/03 09:54:27;;;;;;;7.83;4.97;;;;;;;21.97;52.24;98090.34;5073908;28;20207;-80
2023/06/03 09:56:55;;;;;;;8.63;5.40;;;;;;;22.11;53.25;98099.47;5073880;28;20204;-80
2023/06/03 09:59:23;;;;;;;7.07;4.93;;;;;;;22.15;52.28;98081.97;5073503;28;20645;-81
2023/06/03 10:01:51;;;;;;;5.93;5.17;;;;;;;22.27;52.21;98092.16;5073712;28;20269;-81
2023/06/03 10:04:20;;;;;;;6.33;5.40;;;;;;;22.44;53.07;98101.78;5073981;28;20207;-81
2023/06/03 10:06:48;;;;;;;6.00;5.10;;;;;;;22.62;51.06;98080.75;5073802;28;20207;-80
2023/06/03 10:09:19;;;;;;;7.70;5.30;;;;;;;22.74;49.59;98059.63;5072904;28;20246;-80
2023/06/03 10:11:47;;;;;;;6.87;5.23;;;;;;;22.63;49.82;98058.22;5073642;28;20211;-81
2023/06/03 10:14:14;;;;;;;6.07;5.20;;;;;;;22.60;50.92;98060.41;5073813;28;20204;-81
2023/06/03 10:16:41;;;;;;;7.20;5.20;;;;;;;22.56;52.83;98081.50;5073521;28;20670;-81
2023/06/03 10:19:07;;;;;;;7.93;4.87;;;;;;;22.73;52.79;98095.69;5073105;28;20227;-82
2023/06/03 10:21:38;;;;;;;6.23;4.93;;;;;;;22.76;48.87;98050.34;5073579;28;20675;-79
2023/06/03 10:24:07;;;;;;;7.80;4.93;;;;;;;22.80;52.61;98083.97;5073642;28;20212;-80
2023/06/03 10:26:34;;;;;;;7.30;5.30;;;;;;;23.01;51.41;98076.00;5073757;28;20244;-81
2023/06/03 10:29:02;;;;;;;8.20;5.20;;;;;;;23.08;52.96;98076.94;5073543;28;20231;-82
2023/06/03 10:31:30;;;;;;;8.03;4.77;;;;;;;23.24;52.80;98076.81;5073028;28;20211;-84
2023/06/03 10:33:57;;;;;;;9.23;5.20;;;;;;;23.35;49.85;98056.59;5073392;28;20214;-84
2023/06/03 10:36:25;;;;;;;6.70;5.33;;;;;;;23.38;47.41;98019.31;5073248;28;20203;-81
2023/06/03 10:38:52;;;;;;;7.57;5.20;;;;;;;23.37;50.19;98044.59;5073110;28;20289;-81
2023/06/03 10:41:20;;;;;;;7.40;4.90;;;;;;;23.48;50.97;98056.78;5072643;28;20681;-83
2023/06/03 10:43:47;;;;;;;9.93;5.50;;;;;;;23.61;51.00;98055.09;5072112;28;20650;-84
2023/06/03 10:46:15;;;;;;;6.77;5.10;;;;;;;23.71;50.20;98036.72;5073260;28;20208;-83
2023/06/03 10:48:45;;;;;;;8.07;5.23;;;;;;;23.85;49.53;98033.16;5072744;28;20242;-85
2023/06/03 10:51:30;;;;;;;8.07;5.30;;;;;;;23.80;50.30;98045.53;5071451;28;20207;-87
2023/06/03 10:54:19;;;;;;;12.00;5.60;;;;;;;23.75;48.73;98020.97;5073093;28;20207;-86
2023/06/03 10:56:51;;;;;;;6.10;4.93;;;;;;;23.52;50.59;98042.72;5072944;28;20212;-86
2023/06/03 10:59:21;;;;;;;6.40;5.07;;;;;;;23.52;48.73;98023.81;5072166;28;20219;-86
2023/06/03 11:01:59;;;;;;;9.30;5.40;;;;;;;23.50;49.04;98033.97;5072526;28;20215;-86
2023/06/03 11:04:26;;;;;;;6.03;4.80;;;;;;;23.70;49.78;98037.75;5071068;28;20213;-85
2023/06/03 11:06:54;;;;;;;7.97;5.30;;;;;;;23.89;49.39;98034.44;5070321;28;20210;-86
2023/06/03 11:09:35;;;;;;;8.10;5.20;;;;;;;23.95;47.50;98019.38;5068713;28;20227;-83
2023/06/03 11:12:06;;;;;;;7.30;5.40;;;;;;;23.79;47.38;98015.03;5071527;28;20211;-88
2023/06/03 11:14:55;;;;;;;9.70;5.57;;;;;;;23.83;50.24;98045.97;5072700;28;20564;-88
2023/06/03 11:17:26;;;;;;;6.93;5.30;;;;;;;24.08;51.23;98060.00;5072464;28;20218;-88
2023/06/03 11:19:57;;;;;;;6.73;4.73;;;;;;;24.19;48.69;98027.09;5071952;28;20224;-89
2023/06/03 11:22:39;;;;;;;7.90;5.10;;;;;;;24.13;50.05;98036.78;5072568;28;20211;-89
2023/06/03 11:25:07;;;;;;;7.60;5.10;;;;;;;24.34;49.87;98035.94;5069951;28;20268;-89
2023/06/03 11:27:35;;;;;;;7.40;5.43;;;;;;;24.54;49.59;98045.88;5072489;28;20215;-88
2023/06/03 11:30:06;;;;;;;6.03;5.10;;;;;;;24.65;46.79;98012.13;5071727;28;20242;-88
2023/06/03 11:32:34;;;;;;;7.17;4.90;;;;;;;24.79;49.35;98049.88;5071979;28;20207;-86
2023/06/03 11:35:29;;;;;;;7.70;5.67;;;;;;;24.94;48.23;98034.34;5072414;28;20308;-86
2023/06/03 11:37:56;;;;;;;6.93;5.43;;;;;;;25.04;43.46;97972.63;5081189;28;20211;-85
2023/06/03 11:40:23;;;;;;;6.10;4.93;;;;;;;25.01;43.29;97974.91;5077411;28;20246;-86